Time;durP1;ratioP1;P1;durP2;ratioP2;P2;SDS_P1;SDS_P2;PMS_P1;PMS_P2;Temp;Humidity;BMP_temperature;BMP_pressure;BME280_temperature;BME280_humidity;BME280_pressure;Samples;Min_cycle;Max_cycle;Signal;HPM_P1;HPM_P2
2022/09/30 00:04:55;;;;;;;45.10;25.30;;;7.20;99.90;;;;;;9861079;30;20058;-80
2022/09/30 00:09:56;;;;;;;41.70;23.73;;;7.20;99.90;;;;;;9861063;30;20032;-79
2022/09/30 00:14:56;;;;;;;41.73;23.17;;;7.10;99.90;;;;;;9857904;30;20566;-80
2022/09/30 00:19:57;;;;;;;39.57;23.73;;;7.10;99.90;;;;;;9826896;30;20048;-80
2022/09/30 00:24:57;;;;;;;37.30;20.83;;;7.20;99.90;;;;;;9832846;30;20100;-79
2022/09/30 00:29:58;;;;;;;42.40;21.57;;;7.10;99.90;;;;;;9856337;30;20190;-78
2022/09/30 00:34:58;;;;;;;41.50;23.60;;;7.10;99.90;;;;;;9860285;30;20507;-79
2022/09/30 00:39:59;;;;;;;41.33;21.93;;;7.10;99.90;;;;;;9858424;30;20093;-79
2022/09/30 00:45:03;;;;;;;39.43;23.07;;;7.10;99.90;;;;;;9860855;30;20055;-79
2022/09/30 00:50:32;;;;;;;40.77;22.97;;;7.10;99.90;;;;;;9859814;30;20043;-78
2022/09/30 00:55:55;;;;;;;40.77;22.10;;;7.10;99.90;;;;;;9858486;30;20130;-78
2022/09/30 01:00:58;;;;;;;44.43;23.93;;;7.30;99.90;;;;;;9859966;30;20587;-78
2022/09/30 01:05:59;;;;;;;44.17;22.67;;;7.30;99.90;;;;;;9859807;30;20071;-79
2022/09/30 01:11:00;;;;;;;40.27;23.23;;;7.30;99.90;;;;;;9839718;30;20089;-80
2022/09/30 01:16:23;;;;;;;42.33;24.00;;;7.40;99.90;;;;;;9857040;30;20059;-78
2022/09/30 01:21:29;;;;;;;42.23;24.47;;;7.50;99.90;;;;;;9848094;30;20067;-80
2022/09/30 01:26:56;;;;;;;41.27;24.07;;;7.60;99.90;;;;;;9860752;30;20051;-81
2022/09/30 01:32:10;;;;;;;48.27;26.20;;;7.60;99.90;;;;;;9853884;30;20100;-80
2022/09/30 01:37:28;;;;;;;46.83;25.13;;;7.50;99.90;;;;;;9864572;30;20071;-79
2022/09/30 01:43:06;;;;;;;49.33;25.20;;;7.50;99.90;;;;;;9848984;30;20063;-80
2022/09/30 01:48:32;;;;;;;43.13;25.57;;;7.60;99.90;;;;;;9865085;30;20152;-80
2022/09/30 01:53:40;;;;;;;41.20;23.27;;;7.70;99.90;;;;;;9862958;30;20512;-78
2022/09/30 01:59:13;;;;;;;39.90;24.17;;;7.70;99.90;;;;;;9865873;30;20050;-80
2022/09/30 02:04:35;;;;;;;42.67;22.83;;;7.70;99.90;;;;;;9864175;30;20575;-79
2022/09/30 02:09:48;;;;;;;39.27;21.53;;;7.70;99.90;;;;;;9860742;30;20043;-78
2022/09/30 02:15:11;;;;;;;39.27;22.37;;;7.70;99.90;;;;;;9864310;30;20085;-79
2022/09/30 02:20:16;;;;;;;40.97;23.87;;;7.70;99.90;;;;;;9863980;30;20093;-80
2022/09/30 02:25:34;;;;;;;40.05;23.40;;;7.70;99.90;;;;;;9861833;30;20155;-81
2022/09/30 02:30:38;;;;;;;41.60;24.17;;;7.70;99.90;;;;;;9864808;30;20038;-79
2022/09/30 02:35:46;;;;;;;42.50;24.70;;;7.80;99.90;;;;;;9847006;30;20871;-78
2022/09/30 02:40:54;;;;;;;44.43;24.00;;;7.80;99.90;;;;;;9864467;30;20047;-79
2022/09/30 02:46:20;;;;;;;43.57;23.27;;;7.80;99.90;;;;;;9863368;30;20096;-79
2022/09/30 02:51:26;;;;;;;42.40;25.48;;;7.80;99.90;;;;;;9858486;30;20039;-79
2022/09/30 02:56:42;;;;;;;;;;;7.90;99.90;;;;;;9862047;30;20405;-81
2022/09/30 03:01:42;;;;;;;46.30;26.30;;;7.80;99.90;;;;;;9861268;30;19937;-78
2022/09/30 03:06:43;;;;;;;44.47;26.27;;;7.80;99.90;;;;;;9863532;30;20031;-79
2022/09/30 03:11:46;;;;;;;47.20;26.87;;;7.90;99.90;;;;;;9856471;30;20047;-79
2022/09/30 03:17:09;;;;;;;49.50;26.87;;;7.90;99.90;;;;;;9844312;30;20040;-80
2022/09/30 03:22:47;;;;;;;53.93;29.07;;;7.90;99.90;;;;;;9857245;30;20545;-79
2022/09/30 03:28:20;;;;;;;54.60;28.47;;;7.90;99.90;;;;;;9861140;30;20071;-81
2022/09/30 03:33:41;;;;;;;51.13;28.87;;;8.00;99.90;;;;;;9841237;30;20040;-78
2022/09/30 03:39:01;;;;;;;52.40;27.80;;;8.10;99.90;;;;;;9846130;30;20052;-79
2022/09/30 03:44:08;;;;;;;51.30;27.93;;;8.30;99.90;;;;;;9846187;30;20519;-82
2022/09/30 03:49:13;;;;;;;52.13;29.37;;;8.30;99.90;;;;;;9857860;30;20090;-81
2022/09/30 03:54:15;;;;;;;53.83;29.63;;;8.40;99.90;;;;;;9861834;30;20071;-81
2022/09/30 03:59:23;;;;;;;51.20;28.47;;;8.40;99.90;;;;;;9844940;30;20050;-81
2022/09/30 04:04:24;;;;;;;51.00;27.43;;;8.40;99.90;;;;;;9857754;30;20059;-80
2022/09/30 04:09:26;;;;;;;52.10;29.37;;;8.50;99.90;;;;;;9860549;30;20042;-80
2022/09/30 04:14:26;;;;;;;51.13;28.53;;;8.50;99.90;;;;;;9861277;30;20036;-78
2022/09/30 04:19:27;;;;;;;49.90;27.40;;;8.50;99.90;;;;;;9838934;30;20051;-81
2022/09/30 04:24:28;;;;;;;54.17;30.07;;;8.50;99.90;;;;;;9855041;30;20039;-79
2022/09/30 04:29:28;;;;;;;52.03;28.27;;;8.60;99.90;;;;;;9861482;30;20042;-79
2022/09/30 04:34:29;;;;;;;50.17;28.20;;;8.60;99.90;;;;;;9854242;30;20071;-79
2022/09/30 04:39:29;;;;;;;52.70;27.00;;;8.70;99.90;;;;;;9859530;30;20039;-81
2022/09/30 04:44:30;;;;;;;53.03;28.00;;;8.70;99.90;;;;;;9860865;30;20370;-79
2022/09/30 04:49:30;;;;;;;48.83;26.33;;;8.70;99.90;;;;;;9861061;30;20036;-80
2022/09/30 04:54:31;;;;;;;53.77;27.37;;;8.70;99.90;;;;;;9861603;30;20039;-78
2022/09/30 04:59:32;;;;;;;46.83;25.77;;;8.70;99.90;;;;;;9860444;30;20450;-78
2022/09/30 05:04:33;;;;;;;45.73;25.23;;;8.80;99.90;;;;;;9841995;30;20386;-78
2022/09/30 05:09:34;;;;;;;39.70;24.00;;;8.80;99.90;;;;;;9863280;30;20061;-78
2022/09/30 05:14:35;;;;;;;42.97;23.87;;;8.80;99.90;;;;;;9867844;30;20062;-78
2022/09/30 05:19:35;;;;;;;40.47;22.13;;;8.90;99.90;;;;;;9867774;30;20114;-79
2022/09/30 05:24:36;;;;;;;36.37;20.43;;;9.00;99.90;;;;;;9867451;30;20667;-79
2022/09/30 05:29:36;;;;;;;37.43;22.53;;;9.10;99.90;;;;;;9868286;30;20529;-79
2022/09/30 05:34:37;;;;;;;41.10;22.13;;;9.10;99.90;;;;;;9867352;30;20050;-79
2022/09/30 05:39:38;;;;;;;39.50;21.00;;;9.20;99.90;;;;;;9867506;30;20104;-79
2022/09/30 05:44:39;;;;;;;35.50;19.63;;;9.30;99.90;;;;;;9866438;30;20043;-78
2022/09/30 05:49:40;;;;;;;35.00;19.73;;;9.30;99.90;;;;;;9867085;30;20051;-80
2022/09/30 05:54:41;;;;;;;36.57;20.30;;;9.40;99.90;;;;;;9866156;30;20039;-80
2022/09/30 05:59:42;;;;;;;35.40;20.03;;;9.50;99.90;;;;;;9866146;30;20044;-80
2022/09/30 06:04:43;;;;;;;33.83;20.80;;;9.50;99.90;;;;;;9865683;30;20067;-81
2022/09/30 06:09:44;;;;;;;35.50;21.63;;;9.50;99.90;;;;;;9866172;30;20028;-81
2022/09/30 06:14:45;;;;;;;38.13;22.40;;;9.50;99.90;;;;;;9866034;30;20161;-81
2022/09/30 06:19:45;;;;;;;41.90;23.03;;;9.50;99.90;;;;;;9849173;30;20062;-81
2022/09/30 06:24:46;;;;;;;43.80;23.87;;;9.40;99.90;;;;;;9865491;30;20042;-79
2022/09/30 06:29:47;;;;;;;46.10;23.93;;;9.40;99.90;;;;;;9865515;30;20051;-79
2022/09/30 06:34:48;;;;;;;46.20;23.53;;;9.40;99.90;;;;;;9865828;30;20032;-80
2022/09/30 06:39:49;;;;;;;51.43;24.47;;;9.40;99.90;;;;;;9864888;30;20040;-80
2022/09/30 06:44:50;;;;;;;49.57;25.83;;;9.50;99.90;;;;;;9864824;30;20066;-80
2022/09/30 06:49:51;;;;;;;48.00;24.40;;;9.40;99.90;;;;;;9864524;30;20438;-78
2022/09/30 06:54:55;;;;;;;54.47;26.83;;;9.50;99.90;;;;;;9864188;30;20074;-78
2022/09/30 06:59:55;;;;;;;58.37;28.40;;;9.50;99.90;;;;;;9863879;30;20050;-78
2022/09/30 07:04:56;;;;;;;58.60;29.17;;;9.50;99.90;;;;;;9863784;30;20066;-80
2022/09/30 07:09:56;;;;;;;56.13;27.00;;;9.60;99.90;;;;;;9863402;30;20036;-79
2022/09/30 07:14:58;;;;;;;65.33;30.87;;;9.60;99.90;;;;;;9863576;30;20102;-79
2022/09/30 07:19:59;;;;;;;61.13;28.80;;;9.70;99.90;;;;;;9862897;30;20040;-77
2022/09/30 07:25:05;;;;;;;56.17;28.23;;;9.80;99.90;;;;;;9863326;30;20477;-79
2022/09/30 07:30:07;;;;;;;57.93;29.10;;;9.80;99.90;;;;;;9863153;30;20036;-80
2022/09/30 07:35:07;;;;;;;62.53;29.73;;;9.90;99.90;;;;;;9862186;30;20497;-80
2022/09/30 07:40:08;;;;;;;55.47;29.90;;;10.00;99.90;;;;;;9863248;30;20043;-78
2022/09/30 07:45:09;;;;;;;50.57;27.57;;;10.10;99.90;;;;;;9862495;30;20039;-79
2022/09/30 07:50:14;;;;;;;53.10;27.42;;;10.20;99.90;;;;;;9862365;30;20032;-79
2022/09/30 07:55:15;;;;;;;42.83;24.10;;;10.30;99.90;;;;;;9862446;30;20047;-78
2022/09/30 08:00:15;;;;;;;59.65;28.60;;;10.40;99.90;;;;;;9862146;30;20501;-78
2022/09/30 08:05:16;;;;;;;49.40;25.08;;;10.50;99.90;;;;;;9862254;30;20064;-79
2022/09/30 08:10:17;;;;;;;47.45;26.15;;;10.50;99.90;;;;;;9862044;30;20510;-78
2022/09/30 08:15:18;;;;;;;52.33;26.88;;;10.50;99.90;;;;;;9862033;30;20040;-79
2022/09/30 08:20:18;;;;;;;54.22;27.98;;;10.50;99.90;;;;;;9861343;30;20101;-79
2022/09/30 08:25:19;;;;;;;49.90;27.13;;;10.50;99.90;;;;;;9862297;30;20116;-80
2022/09/30 08:30:20;;;;;;;53.40;27.92;;;10.50;99.90;;;;;;9861825;30;20130;-78
2022/09/30 08:35:20;;;;;;;63.00;29.83;;;10.50;99.90;;;;;;9860837;30;20046;-80
2022/09/30 08:40:25;;;;;;;56.67;27.60;;;10.50;99.90;;;;;;9861376;30;20147;-78
2022/09/30 08:45:47;;;;;;;54.07;28.80;;;10.60;99.90;;;;;;9865017;30;20039;-78
2022/09/30 08:51:07;;;;;;;52.78;26.05;;;10.70;99.90;;;;;;9868623;30;20281;-78
2022/09/30 08:56:19;;;;;;;48.42;24.92;;;10.60;99.90;;;;;;9869107;30;20042;-80
2022/09/30 09:01:33;;;;;;;56.13;29.05;;;10.50;99.90;;;;;;9868384;30;20086;-79
2022/09/30 09:06:53;;;;;;;64.60;30.30;;;10.50;99.90;;;;;;9865359;30;20071;-78
2022/09/30 09:12:15;;;;;;;59.70;27.75;;;10.50;99.90;;;;;;9868159;30;20047;-78
2022/09/30 09:17:58;;;;;;;59.28;28.25;;;10.50;99.90;;;;;;9862878;30;20059;-79
2022/09/30 09:23:02;;;;;;;50.45;25.92;;;10.50;99.90;;;;;;9863244;30;21160;-80
2022/09/30 09:28:21;;;;;;;53.28;25.13;;;10.40;99.90;;;;;;9867833;30;20106;-79
2022/09/30 09:33:28;;;;;;;62.20;28.42;;;10.40;99.90;;;;;;9867314;30;20405;-78
2022/09/30 09:38:37;;;;;;;62.00;28.83;;;10.50;99.90;;;;;;9861850;30;20066;-79
2022/09/30 09:43:52;;;;;;;48.40;24.25;;;10.50;99.90;;;;;;9866901;30;20630;-79
2022/09/30 09:49:28;;;;;;;56.70;26.42;;;10.50;99.90;;;;;;9867102;30;20038;-79
2022/09/30 09:54:31;;;;;;;56.58;26.23;;;10.50;99.90;;;;;;9864058;30;20485;-80
2022/09/30 09:59:32;;;;;;;47.13;26.15;;;10.60;99.90;;;;;;9866033;30;20097;-79
2022/09/30 10:04:34;;;;;;;53.08;24.80;;;10.60;99.90;;;;;;9865636;30;20109;-78
2022/09/30 10:09:40;;;;;;;38.78;19.85;;;10.70;99.90;;;;;;9866225;30;20438;-79
2022/09/30 10:14:51;;;;;;;40.90;20.48;;;10.70;99.90;;;;;;9865978;30;20122;-81
2022/09/30 10:19:57;;;;;;;41.28;21.20;;;10.70;99.90;;;;;;9866092;30;20044;-78
2022/09/30 10:25:13;;;;;;;40.20;19.67;;;10.70;99.90;;;;;;9866015;30;20473;-78
2022/09/30 10:30:40;;;;;;;32.00;17.02;;;10.60;99.90;;;;;;9865890;30;20519;-78
2022/09/30 10:35:52;;;;;;;31.65;17.05;;;10.60;99.90;;;;;;9864886;30;20044;-80
2022/09/30 10:40:53;;;;;;;30.85;15.68;;;10.60;99.90;;;;;;9865397;30;20408;-80
2022/09/30 10:45:54;;;;;;;35.85;15.70;;;10.60;99.90;;;;;;9864855;30;20042;-78
2022/09/30 10:50:56;;;;;;;34.28;17.85;;;10.60;99.90;;;;;;9864425;30;20039;-78
2022/09/30 10:55:56;;;;;;;41.10;21.00;;;10.70;99.90;;;;;;9864394;30;20169;-79
2022/09/30 11:01:08;;;;;;;110.97;74.45;;;10.80;99.90;;;;;;9864458;30;20069;-81
2022/09/30 11:06:13;;;;;;;45.88;22.80;;;10.80;99.90;;;;;;9858853;30;20060;-81
2022/09/30 11:11:21;;;;;;;46.83;23.65;;;10.80;99.90;;;;;;9863766;30;20027;-78
2022/09/30 11:16:43;;;;;;;121.15;73.05;;;10.80;99.90;;;;;;9859147;30;20049;-81
2022/09/30 11:22:19;;;;;;;59.20;36.58;;;10.90;99.90;;;;;;9863739;30;20417;-79
2022/09/30 11:27:48;;;;;;;45.58;25.02;;;10.80;99.90;;;;;;9842643;30;20060;-79
2022/09/30 11:32:59;;;;;;;41.22;20.85;;;10.70;99.90;;;;;;9863983;30;20290;-81
2022/09/30 11:38:18;;;;;;;319.85;186.20;;;10.80;99.90;;;;;;9864263;30;20090;-78
2022/09/30 11:43:40;;;;;;;80.05;40.65;;;10.70;99.90;;;;;;9852329;30;20070;-79
2022/09/30 11:48:51;;;;;;;37.08;19.98;;;10.70;99.90;;;;;;9862644;30;20035;-78
2022/09/30 11:53:58;;;;;;;42.45;21.50;;;10.70;99.90;;;;;;9862743;30;20058;-79
2022/09/30 11:59:04;;;;;;;33.75;18.02;;;10.70;99.90;;;;;;9862331;30;20268;-80
2022/09/30 12:04:07;;;;;;;39.05;19.48;;;10.70;99.90;;;;;;9862341;30;20056;-78
2022/09/30 12:09:21;;;;;;;28.45;17.17;;;10.70;99.90;;;;;;9862608;30;20050;-80
2022/09/30 12:14:31;;;;;;;129.73;102.40;;;10.70;99.90;;;;;;9846521;30;20035;-81
2022/09/30 12:19:40;;;;;;;57.40;34.60;;;10.80;99.90;;;;;;9861634;30;20062;-78
2022/09/30 12:24:44;;;;;;;65.32;35.25;;;10.90;99.90;;;;;;9861664;30;20027;-79
2022/09/30 12:30:19;;;;;;;53.53;31.27;;;11.00;99.90;;;;;;9861697;30;20058;-79
2022/09/30 12:35:39;;;;;;;42.58;23.75;;;10.90;99.90;;;;;;9861885;30;20035;-79
2022/09/30 12:40:54;;;;;;;35.58;21.55;;;10.90;99.90;;;;;;9861201;30;20040;-80
2022/09/30 12:46:01;;;;;;;39.97;24.17;;;10.90;99.90;;;;;;9852266;30;20558;-81
2022/09/30 12:51:02;;;;;;;35.30;19.48;;;10.90;99.90;;;;;;9861318;30;20035;-80
2022/09/30 12:56:14;;;;;;;32.15;19.08;;;10.90;99.90;;;;;;9859682;30;20046;-79
2022/09/30 13:01:24;;;;;;;37.33;23.30;;;11.00;99.90;;;;;;9861427;30;20438;-80
2022/09/30 13:06:43;;;;;;;24.40;14.45;;;11.10;99.90;;;;;;9861863;30;20665;-80
2022/09/30 13:11:53;;;;;;;34.72;20.65;;;11.10;99.90;;;;;;9848387;30;20044;-79
2022/09/30 13:17:17;;;;;;;38.85;21.40;;;11.10;99.90;;;;;;9860863;30;20066;-81
2022/09/30 13:22:17;;;;;;;31.45;17.17;;;11.20;99.90;;;;;;9846522;30;20134;-79
2022/09/30 13:27:33;;;;;;;31.92;19.05;;;11.10;99.90;;;;;;9844355;30;20048;-79
2022/09/30 13:32:38;;;;;;;22.80;12.90;;;11.20;99.90;;;;;;9848988;30;20052;-78
2022/09/30 13:37:39;;;;;;;21.52;12.68;;;11.30;99.90;;;;;;9866219;30;20040;-78
2022/09/30 13:42:48;;;;;;;22.52;14.57;;;11.20;99.90;;;;;;9863795;30;20051;-78
2022/09/30 13:48:27;;;;;;;26.05;14.02;;;11.30;99.90;;;;;;9864113;30;20066;-80
2022/09/30 13:53:33;;;;;;;28.48;16.27;;;11.40;99.90;;;;;;9860178;30;20485;-78
2022/09/30 13:59:15;;;;;;;27.25;15.93;;;11.40;99.90;;;;;;9850871;30;20381;-79
2022/09/30 14:04:41;;;;;;;29.17;15.52;;;11.30;99.90;;;;;;9859092;30;20421;-78
2022/09/30 14:10:03;;;;;;;32.85;20.60;;;11.40;99.90;;;;;;9864265;30;20028;-80
2022/09/30 14:15:36;;;;;;;22.25;13.40;;;11.40;99.90;;;;;;9863887;30;20044;-81
2022/09/30 14:20:49;;;;;;;27.33;16.60;;;11.40;99.90;;;;;;9864319;30;20047;-78
2022/09/30 14:25:53;;;;;;;46.03;25.88;;;11.50;99.90;;;;;;9866495;30;20092;-80
2022/09/30 14:31:11;;;;;;;39.58;23.15;;;11.50;99.90;;;;;;9865322;30;20079;-77
2022/09/30 14:36:18;;;;;;;44.45;24.70;;;11.40;99.90;;;;;;9865211;30;20067;-78
2022/09/30 14:41:21;;;;;;;54.03;27.55;;;11.30;99.90;;;;;;9863527;30;20517;-80
2022/09/30 14:46:29;;;;;;;40.83;22.95;;;11.20;99.90;;;;;;9865025;30;20036;-80
2022/09/30 14:51:36;;;;;;;60.40;33.22;;;11.30;99.90;;;;;;9864791;30;20035;-78
2022/09/30 14:56:40;;;;;;;47.65;28.02;;;11.30;99.90;;;;;;9860146;30;20067;-81
2022/09/30 15:01:41;;;;;;;57.47;30.35;;;11.40;99.90;;;;;;9865638;30;20046;-79
2022/09/30 15:06:45;;;;;;;89.78;51.60;;;11.40;99.90;;;;;;9863169;30;20504;-80
2022/09/30 15:11:47;;;;;;;44.30;24.38;;;11.40;99.90;;;;;;9863614;30;20059;-82
2022/09/30 15:16:50;;;;;;;42.83;21.48;;;11.30;99.90;;;;;;9861364;30;20063;-80
2022/09/30 15:21:53;;;;;;;50.38;23.90;;;11.30;99.90;;;;;;9846590;30;20175;-80
2022/09/30 15:26:55;;;;;;;55.17;25.05;;;11.20;99.90;;;;;;9862180;30;20548;-81
2022/09/30 15:32:03;;;;;;;56.92;28.92;;;11.20;99.90;;;;;;9859221;30;20039;-81
2022/09/30 15:37:09;;;;;;;50.53;25.25;;;11.20;99.90;;;;;;9830344;30;20044;-80
2022/09/30 15:42:11;;;;;;;336.25;166.95;;;11.10;99.90;;;;;;9858629;30;20039;-81
2022/09/30 15:47:12;;;;;;;103.63;52.08;;;11.10;99.90;;;;;;9862383;30;20042;-79
2022/09/30 15:52:35;;;;;;;150.20;74.40;;;11.10;99.90;;;;;;9860612;30;20044;-80
2022/09/30 15:57:48;;;;;;;177.93;78.57;;;11.10;99.90;;;;;;9861076;30;20044;-78
2022/09/30 16:02:50;;;;;;;166.05;59.45;;;11.00;99.90;;;;;;9855945;30;20066;-79
2022/09/30 16:07:50;;;;;;;67.30;33.13;;;11.00;99.90;;;;;;9845817;30;20130;-79
2022/09/30 16:12:51;;;;;;;72.70;35.25;;;11.00;99.90;;;;;;9861215;30;20111;-79
2022/09/30 16:17:52;;;;;;;71.57;34.28;;;11.00;99.90;;;;;;9859650;30;20044;-80
2022/09/30 16:22:54;;;;;;;69.00;34.30;;;11.00;99.90;;;;;;9846981;30;20031;-80
2022/09/30 16:27:58;;;;;;;136.40;82.95;;;10.90;99.90;;;;;;9845886;30;20031;-80
2022/09/30 16:33:03;;;;;;;117.78;55.58;;;10.90;99.90;;;;;;9853048;30;20044;-81
2022/09/30 16:38:05;;;;;;;111.78;68.93;;;10.90;99.90;;;;;;9856808;30;20051;-79
2022/09/30 16:43:07;;;;;;;164.27;97.97;;;10.80;99.90;;;;;;9851963;30;20036;-79
2022/09/30 16:48:14;;;;;;;97.15;41.42;;;10.80;99.90;;;;;;9860040;30;20425;-78
2022/09/30 16:53:14;;;;;;;96.22;40.72;;;10.70;99.90;;;;;;9851508;30;20035;-81
2022/09/30 16:58:16;;;;;;;100.82;43.33;;;10.70;99.90;;;;;;9863895;30;20036;-78
2022/09/30 17:03:20;;;;;;;108.18;45.15;;;10.70;99.90;;;;;;9860815;30;20102;-79
2022/09/30 17:08:22;;;;;;;92.63;39.10;;;10.70;99.90;;;;;;9868904;30;20036;-79
2022/09/30 17:13:23;;;;;;;98.80;39.42;;;10.60;99.90;;;;;;9850785;30;20043;-79
2022/09/30 17:18:24;;;;;;;95.88;41.35;;;10.50;99.90;;;;;;9876209;30;20125;-80
2022/09/30 17:23:25;;;;;;;102.18;42.35;;;10.50;99.90;;;;;;9868547;30;20055;-78
2022/09/30 17:28:25;;;;;;;103.18;41.42;;;10.50;99.90;;;;;;9866929;30;20039;-78
2022/09/30 17:33:33;;;;;;;104.38;41.33;;;10.50;99.90;;;;;;9871420;30;20040;-79
2022/09/30 17:38:35;;;;;;;137.65;50.15;;;10.40;99.90;;;;;;9866780;30;20044;-80
2022/09/30 17:43:37;;;;;;;124.45;44.83;;;10.50;99.90;;;;;;9865243;30;20039;-78
2022/09/30 17:48:38;;;;;;;113.97;41.42;;;10.50;99.90;;;;;;9867053;30;20040;-79
2022/09/30 17:53:39;;;;;;;114.47;37.95;;;10.50;99.90;;;;;;9865336;30;20043;-79
2022/09/30 17:58:41;;;;;;;140.27;50.95;;;10.50;99.90;;;;;;9865053;30;20043;-79
2022/09/30 18:03:42;;;;;;;164.25;54.15;;;10.50;99.90;;;;;;9849642;30;20060;-79
2022/09/30 18:08:47;;;;;;;181.23;68.25;;;10.50;99.90;;;;;;9865844;30;20485;-83
2022/09/30 18:13:56;;;;;;;174.38;59.38;;;10.50;99.90;;;;;;9873671;30;20063;-79
2022/09/30 18:19:02;;;;;;;208.10;65.40;;;10.60;99.90;;;;;;9864395;30;20051;-79
2022/09/30 18:24:04;;;;;;;;;;;10.60;99.90;;;;;;9861480;30;20036;-81
2022/09/30 18:29:05;;;;;;;184.45;61.20;;;10.60;99.90;;;;;;9867069;30;19935;-79
2022/09/30 18:34:06;;;;;;;209.60;63.90;;;10.70;99.90;;;;;;9865052;30;20147;-79
2022/09/30 18:39:06;;;;;;;189.18;57.55;;;10.70;99.90;;;;;;9862093;30;20555;-80
2022/09/30 18:44:08;;;;;;;161.32;48.80;;;10.70;99.90;;;;;;9876232;30;20036;-78
2022/09/30 18:49:15;;;;;;;180.63;50.78;;;10.70;99.90;;;;;;9861673;30;20028;-79
2022/09/30 18:54:16;;;;;;;215.98;58.03;;;10.70;99.90;;;;;;9862991;30;20097;-79
2022/09/30 18:59:17;;;;;;;184.95;51.85;;;10.70;99.90;;;;;;9863425;30;20040;-82
2022/09/30 19:04:18;;;;;;;169.10;49.35;;;10.80;99.90;;;;;;9846559;30;20472;-79
2022/09/30 19:09:19;;;;;;;177.90;50.20;;;10.80;99.90;;;;;;9870270;30;20106;-79
2022/09/30 19:14:20;;;;;;;171.48;51.47;;;10.80;99.90;;;;;;9864178;30;20405;-81
2022/09/30 19:19:22;;;;;;;225.43;64.47;;;10.80;99.90;;;;;;9863455;30;20043;-80
2022/09/30 19:24:23;;;;;;;216.35;64.68;;;10.80;99.90;;;;;;9863722;30;20067;-79
2022/09/30 19:29:24;;;;;;;261.55;61.13;;;10.80;99.90;;;;;;9863226;30;20035;-80
2022/09/30 19:34:25;;;;;;;259.58;60.67;;;10.80;99.90;;;;;;9859963;30;20046;-79
2022/09/30 19:39:26;;;;;;;194.30;51.40;;;10.80;99.90;;;;;;9859553;30;20046;-80
2022/09/30 19:44:27;;;;;;;198.18;51.85;;;10.80;99.90;;;;;;9862042;30;20040;-80
2022/09/30 19:49:29;;;;;;;231.85;58.13;;;10.80;99.90;;;;;;9863208;30;20047;-80
2022/09/30 19:54:31;;;;;;;198.93;52.75;;;10.80;99.90;;;;;;9850582;30;20046;-80
2022/09/30 19:59:33;;;;;;;201.35;52.90;;;10.80;99.90;;;;;;9860151;30;20142;-79
2022/09/30 20:04:34;;;;;;;199.52;51.60;;;10.90;99.90;;;;;;9851683;30;20052;-78
2022/09/30 20:09:36;;;;;;;195.25;55.05;;;10.80;99.90;;;;;;9857282;30;20113;-79
2022/09/30 20:25:15;;;;;;;239.23;62.83;;;10.90;99.90;;;;;;9853126;30;20039;-78
2022/09/30 20:30:16;;;;;;;231.90;62.80;;;10.90;99.90;;;;;;9823988;30;20047;-81
2022/09/30 20:35:17;;;;;;;220.63;60.33;;;10.90;99.90;;;;;;9858060;30;20048;-80
2022/09/30 20:40:17;;;;;;;255.50;65.05;;;10.90;99.90;;;;;;9858566;30;20071;-79
2022/09/30 20:45:18;;;;;;;294.00;69.70;;;10.90;99.90;;;;;;9859939;30;20040;-79
2022/09/30 20:50:33;;;;;;;245.40;64.20;;;10.90;99.90;;;;;;9842173;30;20093;-82
2022/09/30 20:55:39;;;;;;;271.87;71.17;;;10.90;99.90;;;;;;9850454;30;20044;-78
2022/09/30 21:00:40;;;;;;;238.60;64.25;;;10.90;99.90;;;;;;9858568;30;20047;-79
2022/09/30 21:05:50;;;;;;;264.73;70.20;;;10.90;99.90;;;;;;9856363;30;20055;-79
2022/09/30 21:10:51;;;;;;;297.90;74.22;;;10.90;99.90;;;;;;9856914;30;20046;-79
2022/09/30 21:16:00;;;;;;;242.13;62.92;;;10.90;99.90;;;;;;9818085;30;20610;-79
2022/09/30 21:21:02;;;;;;;272.17;65.85;;;10.90;99.90;;;;;;9861515;30;20047;-79
2022/09/30 21:26:05;;;;;;;296.83;69.82;;;11.00;99.90;;;;;;9836382;30;20040;-79
2022/09/30 21:31:12;;;;;;;323.70;74.20;;;10.90;99.90;;;;;;9859997;30;20043;-83
2022/09/30 21:36:12;;;;;;;320.73;71.35;;;11.00;99.90;;;;;;9860677;30;20482;-79
2022/09/30 21:41:13;;;;;;;308.65;70.78;;;11.00;99.90;;;;;;9857184;30;20047;-81
2022/09/30 21:46:14;;;;;;;355.75;78.20;;;11.00;99.90;;;;;;9856633;30;20043;-79
2022/09/30 21:51:15;;;;;;;322.70;68.50;;;11.00;99.90;;;;;;9855256;30;20127;-80
2022/09/30 21:56:16;;;;;;;370.92;79.53;;;11.00;99.90;;;;;;9862918;30;20039;-80
2022/09/30 22:01:16;;;;;;;358.90;78.30;;;11.00;99.90;;;;;;9866170;30;20572;-78
2022/09/30 22:06:18;;;;;;;330.40;72.07;;;11.10;99.90;;;;;;9867737;30;20131;-79
2022/09/30 22:11:23;;;;;;;372.48;78.95;;;11.00;99.90;;;;;;9860324;30;20035;-81
2022/09/30 22:16:28;;;;;;;356.33;81.45;;;11.00;99.90;;;;;;9861843;30;20069;-79
2022/09/30 22:21:31;;;;;;;330.00;76.85;;;11.00;99.90;;;;;;9850094;30;20577;-79
2022/09/30 22:26:32;;;;;;;376.80;86.32;;;11.00;99.90;;;;;;9865486;30;20393;-79
2022/09/30 22:31:33;;;;;;;352.50;81.45;;;11.00;99.90;;;;;;9868247;30;20059;-81
2022/09/30 22:41:55;;;;;;;290.88;78.53;;;11.00;99.90;;;;;;9864294;30;20055;-79
2022/09/30 22:46:59;;;;;;;270.13;72.10;;;11.00;99.90;;;;;;9865285;30;20047;-79
2022/09/30 22:52:00;;;;;;;273.90;77.57;;;11.00;99.90;;;;;;9865581;30;20714;-79
2022/09/30 22:57:01;;;;;;;265.20;77.85;;;11.00;99.90;;;;;;9862616;30;20508;-79
2022/09/30 23:02:03;;;;;;;278.33;80.68;;;11.10;99.90;;;;;;9864231;30;20063;-81
2022/09/30 23:07:07;;;;;;;274.52;78.75;;;11.10;99.90;;;;;;9865258;30;20074;-80
2022/09/30 23:12:08;;;;;;;225.23;66.28;;;11.10;99.90;;;;;;9859510;30;20128;-80
2022/09/30 23:17:08;;;;;;;206.65;63.00;;;11.10;99.90;;;;;;9837793;30;20082;-80
2022/09/30 23:22:09;;;;;;;237.35;70.35;;;11.10;99.90;;;;;;9864104;30;20189;-79
2022/09/30 23:27:10;;;;;;;217.43;61.65;;;11.00;99.90;;;;;;9862152;30;20043;-78
2022/09/30 23:32:10;;;;;;;201.35;58.83;;;11.00;99.90;;;;;;9853960;30;20054;-81
2022/09/30 23:37:11;;;;;;;219.85;60.80;;;11.00;99.90;;;;;;9864040;30;20116;-78
2022/09/30 23:42:11;;;;;;;199.50;59.40;;;11.00;99.90;;;;;;9844783;30;20056;-79
2022/09/30 23:47:18;;;;;;;204.88;63.92;;;11.00;99.90;;;;;;9862865;30;20055;-81
2022/09/30 23:52:18;;;;;;;190.63;58.45;;;10.90;99.90;;;;;;9859792;30;20040;-81
2022/09/30 23:57:19;;;;;;;195.05;59.40;;;10.90;99.90;;;;;;9861098;30;20073;-78
